createdAt,value
2018-04-17T00:02:00.838Z,8.83
2018-04-17T00:04:28.375Z,7.73
2018-04-17T00:06:55.881Z,8.90
2018-04-17T00:09:25.070Z,8.43
2018-04-17T00:11:52.647Z,6.80
2018-04-17T00:14:20.934Z,11.67
2018-04-17T00:16:48.441Z,10.67
2018-04-17T00:19:16.009Z,10.43
2018-04-17T00:21:43.535Z,7.87
2018-04-17T00:24:11.065Z,11.50
2018-04-17T00:26:39.403Z,11.47
2018-04-17T00:29:06.907Z,12.90
2018-04-17T00:31:34.828Z,10.80
2018-04-17T00:34:02.373Z,12.13
2018-04-17T00:36:29.890Z,9.87
2018-04-17T00:38:57.403Z,9.43
2018-04-17T00:41:24.917Z,8.87
2018-04-17T00:43:53.201Z,9.37
2018-04-17T00:46:20.722Z,7.70
2018-04-17T00:48:48.278Z,12.57
2018-04-17T00:51:15.825Z,10.73
2018-04-17T00:53:59.131Z,9.23
2018-04-17T00:56:26.685Z,12.47
2018-04-17T00:58:54.202Z,10.23
2018-04-17T01:01:21.723Z,9.00
2018-04-17T01:03:49.275Z,9.43
2018-04-17T01:06:16.790Z,9.00
2018-04-17T01:08:44.311Z,9.73
2018-04-17T01:11:11.913Z,9.60
2018-04-17T01:13:39.427Z,11.00
2018-04-17T01:16:06.937Z,10.77
2018-04-17T01:18:34.489Z,11.27
2018-04-17T01:21:01.996Z,11.60
2018-04-17T01:23:29.494Z,9.37
2018-04-17T01:25:57.020Z,9.17
2018-04-17T01:28:25.283Z,8.47
2018-04-17T01:30:52.809Z,9.60
2018-04-17T01:33:20.355Z,9.73
2018-04-17T01:35:47.869Z,8.47
2018-04-17T01:38:15.409Z,10.53
2018-04-17T01:40:42.962Z,12.07
2018-04-17T01:43:11.244Z,11.00
2018-04-17T01:45:38.746Z,10.77
2018-04-17T01:48:06.316Z,11.50
2018-04-17T01:50:34.595Z,8.97
2018-04-17T01:53:02.099Z,9.33
2018-04-17T01:55:29.736Z,9.20
2018-04-17T01:57:57.242Z,7.93
2018-04-17T02:00:26.018Z,8.63
2018-04-17T02:02:54.328Z,9.23
2018-04-17T02:05:21.822Z,8.83
2018-04-17T02:07:49.323Z,9.07
2018-04-17T02:10:16.902Z,9.53
2018-04-17T02:12:44.427Z,9.60
2018-04-17T02:15:11.932Z,8.57
2018-04-17T02:17:39.451Z,9.97
2018-04-17T02:20:07.008Z,8.00
2018-04-17T02:22:34.517Z,7.67
2018-04-17T02:25:02.070Z,8.67
2018-04-17T02:27:29.574Z,7.93
2018-04-17T02:29:57.075Z,10.87
2018-04-17T02:32:24.612Z,9.47
2018-04-17T02:34:52.128Z,12.33
2018-04-17T02:37:19.644Z,10.00
2018-04-17T02:39:47.947Z,9.30
2018-04-17T02:42:15.461Z,9.50
2018-04-17T02:44:42.963Z,12.60
2018-04-17T02:47:10.506Z,12.23
2018-04-17T02:49:38.035Z,9.73
2018-04-17T02:52:05.547Z,8.47
2018-04-17T02:54:33.150Z,8.83
2018-04-17T02:57:00.646Z,10.90
2018-04-17T02:59:28.911Z,12.53
2018-04-17T03:01:56.435Z,10.10
2018-04-17T03:04:23.928Z,8.23
2018-04-17T03:06:52.206Z,9.70
2018-04-17T03:09:19.741Z,10.93
2018-04-17T03:11:47.248Z,13.37
2018-04-17T03:14:15.335Z,10.30
2018-04-17T03:16:42.861Z,11.13
2018-04-17T03:19:10.371Z,8.80
2018-04-17T03:21:38.666Z,12.23
2018-04-17T03:24:06.240Z,12.33
2018-04-17T03:26:36.222Z,11.30
2018-04-17T03:29:03.718Z,11.80
2018-04-17T03:31:31.241Z,15.20
2018-04-17T03:33:58.757Z,10.17
2018-04-17T03:36:27.556Z,12.37
2018-04-17T03:38:55.114Z,12.27
2018-04-17T03:41:23.388Z,12.83
2018-04-17T03:43:50.901Z,10.73
2018-04-17T03:46:18.425Z,10.67
2018-04-17T03:48:46.691Z,11.77
2018-04-17T03:51:14.205Z,14.83
2018-04-17T03:53:41.780Z,12.13
2018-04-17T03:56:09.292Z,11.20
2018-04-17T03:58:36.834Z,12.47
2018-04-17T04:01:04.359Z,13.00
2018-04-17T04:03:31.867Z,16.30
2018-04-17T04:05:59.379Z,12.20
2018-04-17T04:08:26.912Z,12.87
2018-04-17T04:10:54.419Z,12.03
2018-04-17T04:13:21.944Z,11.37
2018-04-17T04:15:49.479Z,17.70
2018-04-17T04:18:29.550Z,16.77
2018-04-17T04:24:09.394Z,12.73
2018-04-17T04:26:36.926Z,12.90
2018-04-17T04:29:04.425Z,13.57
2018-04-17T04:31:31.946Z,15.90
2018-04-17T04:34:00.274Z,13.87
2018-04-17T04:36:27.786Z,12.60
2018-04-17T04:38:56.063Z,15.93
2018-04-17T04:41:23.607Z,11.87
2018-04-17T04:43:51.114Z,14.97
2018-04-17T04:46:19.409Z,13.73
2018-04-17T04:48:46.954Z,13.93
2018-04-17T04:51:14.522Z,16.63
2018-04-17T04:53:42.042Z,11.53
2018-04-17T04:56:09.614Z,12.40
2018-04-17T04:58:37.889Z,12.07
2018-04-17T05:01:05.407Z,12.93
2018-04-17T05:03:32.940Z,11.40
2018-04-17T05:06:00.454Z,13.87
2018-04-17T05:08:27.959Z,11.57
2018-04-17T05:10:55.496Z,12.10
2018-04-17T05:13:22.997Z,13.60
2018-04-17T05:15:50.502Z,12.37
2018-04-17T05:18:18.795Z,12.80
2018-04-17T05:20:46.323Z,16.80
2018-04-17T05:23:13.955Z,14.30
2018-04-17T05:25:41.516Z,14.83
2018-04-17T05:28:09.032Z,12.83
2018-04-17T05:30:37.309Z,14.07
2018-04-17T05:33:04.842Z,16.73
2018-04-17T05:35:32.372Z,16.03
2018-04-17T05:37:59.916Z,14.80
2018-04-17T05:40:27.448Z,16.07
2018-04-17T05:42:55.037Z,18.00
2018-04-17T05:45:23.302Z,21.43
2018-04-17T05:47:50.845Z,18.53
2018-04-17T05:50:19.191Z,17.50
2018-04-17T05:52:46.696Z,17.13
2018-04-17T05:55:15.000Z,21.20
2018-04-17T05:57:42.591Z,22.97
2018-04-17T06:00:10.101Z,21.13
2018-04-17T06:02:38.463Z,24.50
2018-04-17T06:05:06.790Z,25.77
2018-04-17T06:07:34.323Z,28.70
2018-04-17T06:10:01.835Z,25.73
2018-04-17T06:12:29.445Z,32.13
2018-04-17T06:14:57.801Z,31.80
2018-04-17T06:17:26.089Z,29.57
2018-04-17T06:19:53.644Z,34.10
2018-04-17T06:22:21.940Z,29.30
2018-04-17T06:24:49.509Z,32.20
2018-04-17T06:27:17.055Z,33.73
2018-04-17T06:29:44.627Z,31.70
2018-04-17T06:32:12.187Z,33.17
2018-04-17T06:34:40.462Z,33.87
2018-04-17T06:37:08.038Z,32.43
2018-04-17T06:39:35.549Z,29.13
2018-04-17T06:42:03.161Z,35.93
2018-04-17T06:44:31.467Z,33.40
2018-04-17T06:46:58.982Z,29.77
2018-04-17T06:49:26.510Z,31.50
2018-04-17T06:51:54.057Z,31.33
2018-04-17T06:54:21.619Z,36.60
2018-04-17T06:56:49.139Z,29.60
2018-04-17T06:59:16.700Z,33.63
2018-04-17T07:01:44.238Z,36.40
2018-04-17T07:04:11.788Z,31.67
2018-04-17T07:06:39.351Z,34.00
2018-04-17T07:09:07.663Z,31.17
2018-04-17T07:11:35.201Z,33.03
2018-04-17T07:14:04.070Z,36.50
2018-04-17T07:16:31.599Z,30.80
2018-04-17T07:18:59.148Z,30.27
2018-04-17T07:21:26.699Z,29.03
2018-04-17T07:23:54.208Z,29.30
2018-04-17T07:26:21.767Z,24.97
2018-04-17T07:28:49.269Z,28.03
2018-04-17T07:31:16.787Z,27.90
2018-04-17T07:33:44.336Z,27.30
2018-04-17T07:36:11.864Z,28.33
2018-04-17T07:38:39.386Z,23.83
2018-04-17T07:41:07.755Z,22.10
2018-04-17T07:43:35.283Z,25.27
2018-04-17T07:46:02.785Z,23.63
2018-04-17T07:48:42.128Z,23.17
2018-04-17T07:51:09.695Z,19.33
2018-04-17T07:53:37.265Z,24.50
2018-04-17T07:56:04.839Z,20.57
2018-04-17T07:58:32.346Z,22.93
2018-04-17T08:00:59.861Z,21.23
2018-04-17T08:03:27.550Z,20.50
2018-04-17T08:05:55.143Z,21.47
2018-04-17T08:08:22.648Z,21.30
2018-04-17T08:10:50.190Z,21.47
2018-04-17T08:13:18.460Z,19.23
2018-04-17T08:15:45.969Z,20.27
2018-04-17T08:18:13.552Z,20.03
2018-04-17T08:20:41.062Z,22.20
2018-04-17T08:23:08.638Z,23.60
2018-04-17T08:25:36.191Z,17.23
2018-04-17T08:28:03.717Z,19.43
2018-04-17T08:30:31.241Z,19.57
2018-04-17T08:32:58.769Z,18.93
2018-04-17T08:35:26.308Z,20.30
2018-04-17T08:37:54.601Z,18.87
2018-04-17T08:40:22.119Z,18.17
2018-04-17T08:42:49.747Z,15.63
2018-04-17T08:45:17.223Z,17.47
2018-04-17T08:47:44.757Z,15.73
2018-04-17T08:50:12.310Z,19.27
2018-04-17T08:52:39.843Z,17.93
2018-04-17T08:55:07.418Z,18.37
2018-04-17T08:57:34.998Z,14.80
2018-04-17T09:00:02.491Z,14.37
2018-04-17T09:02:29.995Z,14.33
2018-04-17T09:04:57.556Z,15.23
2018-04-17T09:07:25.077Z,15.73
2018-04-17T09:09:52.613Z,15.40
2018-04-17T09:12:20.179Z,11.00
2018-04-17T09:14:47.703Z,12.87
2018-04-17T09:17:15.217Z,12.30
2018-04-17T09:19:42.750Z,12.43
2018-04-17T09:22:10.265Z,10.80
2018-04-17T09:24:37.772Z,11.93
2018-04-17T09:27:05.320Z,14.27
2018-04-17T09:29:33.090Z,12.37
2018-04-17T09:32:00.598Z,15.30
2018-04-17T09:34:28.972Z,15.53
2018-04-17T09:36:56.452Z,15.37
2018-04-17T09:39:25.438Z,14.17
2018-04-17T09:41:53.036Z,13.57
2018-04-17T09:44:20.596Z,16.30
2018-04-17T09:46:48.127Z,14.53
2018-04-17T09:49:16.438Z,14.03
2018-04-17T09:51:43.946Z,14.07
2018-04-17T09:54:11.452Z,11.80
2018-04-17T09:56:39.742Z,12.30
2018-04-17T09:59:07.267Z,10.53
2018-04-17T10:01:34.846Z,9.47
2018-04-17T10:04:02.403Z,12.67
2018-04-17T10:06:29.933Z,11.83
2018-04-17T10:08:57.515Z,9.37
2018-04-17T10:11:25.055Z,9.00
2018-04-17T10:13:52.574Z,11.93
2018-04-17T10:16:20.141Z,12.70
2018-04-17T10:18:47.667Z,9.50
2018-04-17T10:21:15.667Z,8.33
2018-04-17T10:23:43.975Z,9.80
2018-04-17T10:26:12.300Z,10.83
2018-04-17T10:28:39.859Z,8.30
2018-04-17T10:31:07.400Z,10.27
2018-04-17T10:33:35.022Z,10.13
2018-04-17T10:36:02.578Z,12.23
2018-04-17T10:38:30.111Z,9.20
2018-04-17T10:40:57.638Z,10.00
2018-04-17T10:43:25.146Z,14.03
2018-04-17T10:45:52.696Z,10.77
2018-04-17T10:48:20.211Z,10.60
2018-04-17T10:50:47.738Z,10.00
2018-04-17T10:53:15.554Z,10.40
2018-04-17T10:55:43.080Z,11.37
2018-04-17T10:58:10.597Z,11.27
2018-04-17T11:00:38.145Z,9.87
2018-04-17T11:03:05.708Z,8.53
2018-04-17T11:05:33.228Z,11.33
2018-04-17T11:08:00.767Z,13.53
2018-04-17T11:10:28.313Z,12.57
2018-04-17T11:12:55.814Z,7.60
2018-04-17T11:15:23.371Z,7.20
2018-04-17T11:17:50.894Z,9.37
2018-04-17T11:20:18.395Z,12.03
2018-04-17T11:22:45.944Z,13.97
2018-04-17T11:25:13.479Z,10.13
2018-04-17T11:27:40.972Z,6.73
2018-04-17T11:30:08.498Z,11.10
2018-04-17T11:32:36.007Z,12.57
2018-04-17T11:35:03.539Z,9.70
2018-04-17T11:37:31.087Z,10.63
2018-04-17T11:39:58.585Z,9.40
2018-04-17T11:42:26.223Z,9.98
2018-04-17T11:44:53.782Z,12.43
2018-04-17T11:47:21.334Z,14.57
2018-04-17T11:49:48.839Z,11.27
2018-04-17T11:52:16.379Z,9.80
2018-04-17T11:54:43.891Z,6.57
2018-04-17T11:57:11.433Z,10.03
2018-04-17T11:59:39.701Z,9.93
2018-04-17T12:02:07.202Z,9.73
2018-04-17T12:04:34.759Z,11.43
2018-04-17T12:07:02.297Z,15.50
2018-04-17T12:09:29.847Z,12.67
2018-04-17T12:11:57.512Z,13.63
2018-04-17T12:14:25.151Z,6.63
2018-04-17T12:16:52.613Z,12.13
2018-04-17T12:19:20.154Z,10.37
2018-04-17T12:21:47.678Z,14.20
2018-04-17T12:24:15.221Z,7.80
2018-04-17T12:26:42.764Z,12.53
2018-04-17T12:29:11.045Z,14.17
2018-04-17T12:31:38.580Z,11.67
2018-04-17T12:34:06.110Z,10.43
2018-04-17T12:36:33.636Z,13.20
2018-04-17T12:39:01.137Z,11.80
2018-04-17T12:41:28.701Z,10.97
2018-04-17T12:43:56.236Z,14.67
2018-04-17T12:46:23.754Z,7.37
2018-04-17T12:48:52.056Z,9.87
2018-04-17T12:51:21.118Z,11.07
2018-04-17T12:53:48.679Z,10.70
2018-04-17T12:56:16.222Z,9.27
2018-04-17T12:58:43.729Z,8.47
2018-04-17T13:01:11.230Z,8.47
2018-04-17T13:03:38.759Z,11.57
2018-04-17T13:06:06.276Z,9.23
2018-04-17T13:08:33.786Z,10.13
2018-04-17T13:11:01.351Z,11.03
2018-04-17T13:13:28.861Z,12.47
2018-04-17T13:15:56.399Z,8.37
2018-04-17T13:18:23.946Z,9.10
2018-04-17T13:20:51.461Z,13.30
2018-04-17T13:23:20.458Z,8.07
2018-04-17T13:25:48.814Z,11.00
2018-04-17T13:28:16.335Z,13.60
2018-04-17T13:30:43.860Z,11.27
2018-04-17T13:33:12.192Z,12.07
2018-04-17T13:35:39.703Z,11.80
2018-04-17T13:38:07.272Z,14.20
2018-04-17T13:40:34.838Z,11.87
2018-04-17T13:43:02.373Z,10.73
2018-04-17T13:45:29.975Z,12.40
2018-04-17T13:47:57.528Z,12.17
2018-04-17T13:50:25.047Z,12.63
2018-04-17T13:52:52.558Z,8.40
2018-04-17T13:55:20.112Z,14.03
2018-04-17T13:57:47.639Z,13.80
2018-04-17T14:00:15.977Z,10.57
2018-04-17T14:02:43.512Z,10.60
2018-04-17T14:05:11.061Z,9.57
2018-04-17T14:07:38.580Z,13.07
2018-04-17T14:10:07.642Z,12.20
2018-04-17T14:12:35.166Z,9.33
2018-04-17T14:15:03.545Z,11.13
2018-04-17T14:17:31.885Z,9.70
2018-04-17T14:19:59.453Z,11.63
2018-04-17T14:22:26.982Z,11.77
2018-04-17T14:24:54.543Z,10.87
2018-04-17T14:27:22.065Z,12.73
2018-04-17T14:29:50.337Z,10.23
2018-04-17T14:32:17.880Z,10.90
2018-04-17T14:34:45.384Z,7.90
2018-04-17T14:37:13.670Z,10.77
2018-04-17T14:39:41.175Z,10.43
2018-04-17T14:42:08.730Z,9.93
2018-04-17T14:44:36.274Z,11.03
2018-04-17T14:47:03.826Z,8.63
2018-04-17T14:49:31.399Z,11.17
2018-04-17T14:51:58.934Z,10.10
2018-04-17T14:54:26.559Z,13.00
2018-04-17T14:56:54.093Z,8.53
2018-04-17T14:59:21.589Z,9.93
2018-04-17T15:01:49.946Z,6.53
2018-04-17T15:04:17.483Z,10.57
2018-04-17T15:06:44.998Z,11.40
2018-04-17T15:09:12.521Z,11.70
2018-04-17T15:11:40.045Z,8.97
2018-04-17T15:14:07.562Z,9.83
2018-04-17T15:16:35.113Z,8.93
2018-04-17T15:19:02.671Z,10.60
2018-04-17T15:21:30.227Z,11.33
2018-04-17T15:23:57.748Z,8.60
2018-04-17T15:26:25.763Z,15.30
2018-04-17T15:28:53.481Z,7.17
2018-04-17T15:31:20.996Z,10.43
2018-04-17T15:33:49.295Z,8.90
2018-04-17T15:36:17.574Z,8.47
2018-04-17T15:38:45.091Z,5.77
2018-04-17T15:41:12.624Z,5.47
2018-04-17T15:43:40.166Z,10.73
2018-04-17T15:46:07.754Z,9.93
2018-04-17T15:48:35.278Z,8.00
2018-04-17T15:51:03.750Z,10.40
2018-04-17T15:53:31.427Z,6.97
2018-04-17T15:55:59.004Z,10.13
2018-04-17T15:58:26.707Z,10.77
2018-04-17T16:00:54.353Z,9.03
2018-04-17T16:03:21.921Z,8.90
2018-04-17T16:05:49.730Z,11.60
2018-04-17T16:08:17.275Z,10.87
2018-04-17T16:10:45.187Z,10.53
2018-04-17T16:13:13.493Z,9.77
2018-04-17T16:15:41.059Z,11.23
2018-04-17T16:18:08.566Z,7.47
2018-04-17T16:20:36.878Z,9.23
2018-04-17T16:23:04.397Z,10.83
2018-04-17T16:25:31.931Z,9.67
2018-04-17T16:27:59.496Z,10.37
2018-04-17T16:30:27.020Z,8.67
2018-04-17T16:32:54.528Z,10.80
2018-04-17T16:35:22.972Z,7.73
2018-04-17T16:37:50.483Z,9.30
2018-04-17T16:40:18.031Z,6.93
2018-04-17T16:42:45.593Z,11.23
2018-04-17T16:45:13.870Z,10.43
2018-04-17T16:47:42.172Z,9.63
2018-04-17T16:50:09.714Z,9.37
2018-04-17T16:52:37.303Z,11.63
2018-04-17T16:55:04.828Z,10.00
2018-04-17T16:57:32.510Z,10.20
2018-04-17T17:00:00.094Z,10.03
2018-04-17T17:02:27.609Z,8.20
2018-04-17T17:04:55.292Z,11.03
2018-04-17T17:07:22.802Z,10.80
2018-04-17T17:09:50.357Z,11.40
2018-04-17T17:12:18.660Z,11.93
2018-04-17T17:14:46.200Z,12.57
2018-04-17T17:17:13.840Z,8.43
2018-04-17T17:19:41.480Z,11.67
2018-04-17T17:22:09.071Z,10.97
2018-04-17T17:24:42.339Z,14.87
2018-04-17T17:27:10.616Z,12.17
2018-04-17T17:29:38.898Z,13.17
2018-04-17T17:32:07.323Z,9.90
2018-04-17T17:34:34.858Z,10.00
2018-04-17T17:37:02.372Z,11.37
2018-04-17T17:39:31.448Z,12.93
2018-04-17T17:41:58.975Z,11.80
2018-04-17T17:44:26.492Z,8.13
2018-04-17T17:46:54.020Z,15.63
2018-04-17T17:49:21.580Z,11.50
2018-04-17T17:51:49.118Z,12.50
2018-04-17T17:54:17.417Z,10.07
2018-04-17T17:56:45.560Z,9.07
2018-04-17T17:59:13.110Z,10.40
2018-04-17T18:01:41.442Z,12.23
2018-04-17T18:04:08.964Z,11.43
2018-04-17T18:06:36.471Z,10.20
2018-04-17T18:09:04.089Z,13.83
2018-04-17T18:11:31.635Z,13.23
2018-04-17T18:13:59.161Z,16.20
2018-04-17T18:16:26.692Z,13.83
2018-04-17T18:18:54.317Z,10.83
2018-04-17T18:21:21.930Z,7.97
2018-04-17T18:23:49.438Z,10.13
2018-04-17T18:26:17.744Z,9.70
2018-04-17T18:28:45.266Z,9.70
2018-04-17T18:31:13.578Z,10.97
2018-04-17T18:33:41.107Z,9.37
2018-04-17T18:36:09.437Z,9.23
2018-04-17T18:38:36.992Z,10.63
2018-04-17T18:41:04.527Z,8.83
2018-04-17T18:43:32.093Z,8.33
2018-04-17T18:45:59.750Z,7.80
2018-04-17T18:48:27.335Z,9.80
2018-04-17T18:50:54.859Z,7.17
2018-04-17T18:53:22.431Z,10.83
2018-04-17T18:55:50.006Z,8.67
2018-04-17T18:58:17.981Z,7.97
2018-04-17T19:00:46.405Z,7.07
2018-04-17T19:03:13.943Z,7.67
2018-04-17T19:05:41.448Z,6.77
2018-04-17T19:08:09.740Z,9.00
2018-04-17T19:10:37.831Z,8.90
2018-04-17T19:13:05.333Z,6.63
2018-04-17T19:15:32.861Z,11.17
2018-04-17T19:18:00.393Z,10.73
2018-04-17T19:20:27.911Z,10.20
2018-04-17T19:22:55.437Z,8.03
2018-04-17T19:25:23.074Z,8.67
2018-04-17T19:27:51.392Z,7.87
2018-04-17T19:30:18.939Z,7.97
2018-04-17T19:32:46.466Z,11.67
2018-04-17T19:35:13.975Z,7.17
2018-04-17T19:37:41.617Z,7.30
2018-04-17T19:40:09.139Z,8.33
2018-04-17T19:42:36.663Z,8.67
2018-04-17T19:45:04.257Z,9.90
2018-04-17T19:47:31.767Z,8.67
2018-04-17T19:49:59.271Z,8.07
2018-04-17T19:52:26.811Z,7.80
2018-04-17T19:54:54.322Z,11.40
2018-04-17T19:57:22.609Z,8.93
2018-04-17T19:59:50.150Z,7.10
2018-04-17T20:02:18.452Z,11.52
2018-04-17T20:04:45.970Z,9.70
2018-04-17T20:07:13.523Z,10.13
2018-04-17T20:09:41.075Z,11.37
2018-04-17T20:12:08.618Z,8.43
2018-04-17T20:14:36.173Z,8.43
2018-04-17T20:17:03.705Z,8.10
2018-04-17T20:19:31.222Z,9.27
2018-04-17T20:21:58.777Z,7.63
2018-04-17T20:24:26.853Z,8.63
2018-04-17T20:26:54.378Z,9.80
2018-04-17T20:29:21.919Z,8.70
2018-04-17T20:31:49.439Z,7.97
2018-04-17T20:34:16.953Z,11.50
2018-04-17T20:36:44.515Z,9.13
2018-04-17T20:39:12.135Z,8.67
2018-04-17T20:41:39.666Z,10.83
2018-04-17T20:44:07.219Z,10.10
2018-04-17T20:46:34.793Z,9.13
2018-04-17T20:49:02.346Z,8.83
2018-04-17T20:51:29.862Z,6.97
2018-04-17T20:53:57.422Z,7.33
2018-04-17T20:56:24.975Z,9.60
2018-04-17T20:58:52.486Z,9.40
2018-04-17T21:01:19.994Z,9.47
2018-04-17T21:03:48.300Z,11.83
2018-04-17T21:06:15.807Z,9.80
2018-04-17T21:08:43.461Z,10.23
2018-04-17T21:11:11.224Z,9.73
2018-04-17T21:13:38.731Z,6.93
2018-04-17T21:16:06.266Z,7.20
2018-04-17T21:18:33.806Z,8.17
2018-04-17T21:21:01.329Z,10.50
2018-04-17T21:23:28.874Z,8.07
2018-04-17T21:25:56.411Z,6.93
2018-04-17T21:28:24.690Z,7.40
2018-04-17T21:30:52.210Z,10.70
2018-04-17T21:33:19.773Z,12.60
2018-04-17T21:35:47.292Z,9.47
2018-04-17T21:38:14.810Z,9.67
2018-04-17T21:40:42.354Z,10.13
2018-04-17T21:43:09.945Z,10.40
2018-04-17T21:45:37.458Z,9.20
2018-04-17T21:48:04.999Z,8.33
2018-04-17T21:50:32.518Z,10.10
2018-04-17T21:53:00.039Z,9.97
2018-04-17T21:55:27.560Z,9.70
2018-04-17T21:57:55.065Z,8.70
2018-04-17T22:00:22.578Z,7.37
2018-04-17T22:02:50.896Z,7.67
2018-04-17T22:05:18.417Z,12.30
2018-04-17T22:07:46.715Z,9.77
2018-04-17T22:10:14.274Z,10.97
2018-04-17T22:12:41.814Z,8.93
2018-04-17T22:15:10.115Z,10.07
2018-04-17T22:17:37.655Z,11.07
2018-04-17T22:20:05.968Z,12.37
2018-04-17T22:22:33.491Z,9.57
2018-04-17T22:25:01.091Z,8.80
2018-04-17T22:27:28.663Z,11.37
2018-04-17T22:29:56.182Z,11.43
2018-04-17T22:32:24.493Z,6.67
2018-04-17T22:34:52.005Z,10.50
2018-04-17T22:37:19.522Z,10.00
2018-04-17T22:39:47.087Z,12.93
2018-04-17T22:42:14.605Z,10.23
2018-04-17T22:44:42.130Z,8.87
2018-04-17T22:47:09.666Z,9.00
2018-04-17T22:49:37.187Z,9.27
2018-04-17T22:52:06.273Z,10.77
2018-04-17T22:54:33.796Z,9.17
2018-04-17T22:57:01.332Z,10.10
2018-04-17T22:59:29.661Z,9.93
2018-04-17T23:01:57.191Z,10.00
2018-04-17T23:04:24.756Z,7.77
2018-04-17T23:06:52.288Z,11.07
2018-04-17T23:09:19.824Z,10.13
2018-04-17T23:11:48.132Z,9.30
2018-04-17T23:14:15.661Z,10.30
2018-04-17T23:16:44.526Z,10.70
2018-04-17T23:19:12.169Z,7.07
2018-04-17T23:21:39.691Z,9.77
2018-04-17T23:24:07.250Z,9.70
2018-04-17T23:26:34.779Z,10.03
2018-04-17T23:29:02.274Z,8.47
2018-04-17T23:31:29.802Z,12.07
2018-04-17T23:33:58.110Z,8.73
2018-04-17T23:36:27.325Z,13.90
2018-04-17T23:38:54.826Z,13.70
2018-04-17T23:41:22.373Z,12.87
2018-04-17T23:43:49.891Z,8.80
2018-04-17T23:46:17.405Z,12.27
2018-04-17T23:48:44.923Z,8.40
2018-04-17T23:51:12.466Z,7.57
2018-04-17T23:53:40.005Z,10.10
2018-04-17T23:56:08.287Z,10.10
2018-04-17T23:58:36.597Z,9.40
